createdAt,value
2017-10-25T00:01:36.220Z,27.23
2017-10-25T00:04:03.636Z,28.97
2017-10-25T00:06:31.052Z,27.30
2017-10-25T00:08:58.484Z,25.23
2017-10-25T00:11:25.904Z,22.23
2017-10-25T00:13:53.356Z,32.17
2017-10-25T00:16:20.782Z,35.60
2017-10-25T00:18:48.200Z,44.97
2017-10-25T00:21:15.638Z,39.73
2017-10-25T00:23:43.052Z,44.27
2017-10-25T00:26:10.489Z,45.60
2017-10-25T00:28:37.908Z,56.43
2017-10-25T00:31:05.328Z,64.73
2017-10-25T00:33:32.760Z,28.70
2017-10-25T00:36:00.202Z,28.40
2017-10-25T00:38:27.642Z,30.17
2017-10-25T00:40:55.060Z,19.20
2017-10-25T00:43:22.484Z,28.60
2017-10-25T00:45:49.917Z,17.97
2017-10-25T00:48:17.332Z,22.73
2017-10-25T00:50:44.777Z,30.43
2017-10-25T00:53:12.202Z,22.83
2017-10-25T00:55:39.623Z,22.17
2017-10-25T00:58:07.057Z,17.80
2017-10-25T01:00:34.478Z,17.83
2017-10-25T01:03:01.921Z,22.43
2017-10-25T01:05:29.343Z,17.27
2017-10-25T01:07:56.772Z,21.90
2017-10-25T01:13:06.103Z,18.43
2017-10-25T01:15:33.540Z,14.27
2017-10-25T01:18:00.963Z,17.13
2017-10-25T01:20:28.390Z,16.47
2017-10-25T01:22:55.820Z,16.30
2017-10-25T01:25:23.241Z,16.20
2017-10-25T01:27:50.707Z,16.30
2017-10-25T01:30:18.145Z,14.73
2017-10-25T01:32:45.567Z,23.60
2017-10-25T01:35:12.979Z,14.23
2017-10-25T01:37:40.417Z,12.53
2017-10-25T01:40:07.832Z,16.57
2017-10-25T01:42:35.248Z,17.00
2017-10-25T01:45:02.685Z,13.97
2017-10-25T01:47:30.105Z,15.60
2017-10-25T01:49:57.532Z,14.43
2017-10-25T01:52:24.964Z,20.50
2017-10-25T01:54:52.388Z,17.60
2017-10-25T01:57:19.810Z,15.33
2017-10-25T01:59:47.252Z,13.87
2017-10-25T02:02:14.676Z,18.53
2017-10-25T02:04:42.091Z,14.67
2017-10-25T02:07:09.545Z,16.70
2017-10-25T02:09:36.968Z,17.40
2017-10-25T02:12:04.393Z,14.87
2017-10-25T02:14:31.830Z,18.37
2017-10-25T02:16:59.253Z,17.70
2017-10-25T02:19:26.672Z,16.00
2017-10-25T02:21:54.111Z,13.53
2017-10-25T02:24:21.536Z,17.40
2017-10-25T02:26:48.956Z,14.37
2017-10-25T02:29:16.391Z,16.17
2017-10-25T02:31:43.809Z,15.17
2017-10-25T02:34:11.229Z,17.23
2017-10-25T02:36:38.671Z,12.00
2017-10-25T02:39:06.092Z,15.87
2017-10-25T02:41:33.520Z,15.17
2017-10-25T02:44:00.957Z,16.83
2017-10-25T02:46:28.385Z,13.30
2017-10-25T02:48:55.804Z,16.20
2017-10-25T02:51:23.238Z,14.43
2017-10-25T02:53:50.661Z,17.03
2017-10-25T02:56:18.079Z,17.40
2017-10-25T02:58:45.535Z,15.73
2017-10-25T03:01:12.945Z,14.80
2017-10-25T03:03:40.368Z,12.50
2017-10-25T03:06:07.829Z,19.23
2017-10-25T03:08:35.252Z,27.53
2017-10-25T03:11:02.673Z,22.63
2017-10-25T03:13:30.112Z,16.53
2017-10-25T03:15:57.537Z,16.30
2017-10-25T03:18:24.953Z,17.90
2017-10-25T03:20:52.396Z,18.17
2017-10-25T03:23:19.818Z,14.43
2017-10-25T03:25:47.233Z,11.30
2017-10-25T03:28:14.671Z,22.93
2017-10-25T03:30:42.099Z,16.83
2017-10-25T03:33:09.525Z,17.47
2017-10-25T03:35:36.968Z,17.10
2017-10-25T03:38:04.388Z,12.50
2017-10-25T03:40:31.808Z,15.67
2017-10-25T03:42:59.244Z,21.50
2017-10-25T03:45:26.665Z,14.43
2017-10-25T03:47:54.083Z,16.23
2017-10-25T03:50:21.510Z,18.57
2017-10-25T03:52:48.929Z,18.20
2017-10-25T03:55:16.366Z,15.17
2017-10-25T03:57:43.785Z,21.63
2017-10-25T04:00:11.212Z,23.77
2017-10-25T04:02:38.620Z,17.27
2017-10-25T04:05:06.056Z,14.50
2017-10-25T04:07:33.476Z,19.37
2017-10-25T04:10:00.901Z,19.10
2017-10-25T04:12:28.336Z,14.37
2017-10-25T04:14:55.791Z,19.23
2017-10-25T04:17:23.215Z,21.50
2017-10-25T04:19:50.652Z,19.50
2017-10-25T04:22:18.073Z,22.30
2017-10-25T04:24:45.500Z,24.00
2017-10-25T04:27:13.113Z,18.10
2017-10-25T04:29:40.548Z,15.60
2017-10-25T04:32:07.966Z,14.80
2017-10-25T04:34:35.409Z,28.10
2017-10-25T04:37:02.833Z,27.13
2017-10-25T04:39:30.252Z,22.77
2017-10-25T04:41:57.697Z,26.43
2017-10-25T04:44:25.115Z,33.77
2017-10-25T04:46:52.542Z,26.07
2017-10-25T04:49:19.980Z,17.83
2017-10-25T04:51:47.397Z,21.87
2017-10-25T04:54:14.825Z,15.97
2017-10-25T04:56:42.253Z,14.97
2017-10-25T04:59:09.680Z,27.03
2017-10-25T05:01:37.119Z,11.23
2017-10-25T05:04:04.554Z,14.60
2017-10-25T05:06:31.968Z,21.77
2017-10-25T05:08:59.401Z,14.73
2017-10-25T05:11:26.818Z,15.30
2017-10-25T05:13:54.236Z,23.53
2017-10-25T05:16:21.673Z,15.57
2017-10-25T05:18:49.088Z,15.13
2017-10-25T05:21:16.509Z,12.40
2017-10-25T05:23:43.946Z,17.90
2017-10-25T05:26:11.477Z,12.77
2017-10-25T05:28:38.904Z,18.23
2017-10-25T05:31:06.336Z,12.57
2017-10-25T05:33:33.756Z,16.97
2017-10-25T05:36:01.163Z,19.97
2017-10-25T05:38:28.604Z,19.80
2017-10-25T05:40:56.018Z,19.60
2017-10-25T05:43:23.441Z,18.10
2017-10-25T05:45:50.877Z,20.30
2017-10-25T05:48:18.296Z,25.63
2017-10-25T05:50:45.732Z,24.57
2017-10-25T05:53:13.165Z,26.20
2017-10-25T05:55:40.582Z,14.03
2017-10-25T05:58:08.000Z,22.83
2017-10-25T06:00:35.444Z,17.87
2017-10-25T06:03:02.866Z,18.53
2017-10-25T06:05:30.280Z,12.63
2017-10-25T06:07:57.725Z,17.77
2017-10-25T06:10:25.144Z,21.60
2017-10-25T06:12:52.574Z,17.67
2017-10-25T06:15:20.013Z,21.77
2017-10-25T06:17:47.439Z,19.90
2017-10-25T06:20:14.861Z,19.00
2017-10-25T06:22:42.305Z,18.33
2017-10-25T06:25:09.721Z,17.67
2017-10-25T06:27:37.140Z,25.57
2017-10-25T06:30:04.577Z,27.03
2017-10-25T06:32:32.011Z,14.83
2017-10-25T06:34:59.428Z,15.17
2017-10-25T06:37:26.868Z,18.60
2017-10-25T06:39:54.308Z,24.30
2017-10-25T06:42:21.728Z,20.30
2017-10-25T06:44:49.158Z,16.77
2017-10-25T06:47:16.605Z,15.30
2017-10-25T06:49:44.028Z,19.70
2017-10-25T06:52:11.472Z,19.97
2017-10-25T06:54:38.896Z,23.70
2017-10-25T06:57:06.317Z,16.60
2017-10-25T06:59:33.757Z,18.70
2017-10-25T07:02:01.177Z,18.17
2017-10-25T07:04:28.596Z,19.47
2017-10-25T07:06:56.042Z,31.90
2017-10-25T07:09:23.468Z,19.40
2017-10-25T07:11:50.888Z,18.00
2017-10-25T07:14:18.333Z,22.67
2017-10-25T07:16:45.752Z,17.90
2017-10-25T07:19:13.180Z,15.17
2017-10-25T07:21:40.608Z,18.50
2017-10-25T07:24:08.041Z,24.50
2017-10-25T07:26:35.461Z,25.53
2017-10-25T07:29:02.904Z,35.33
2017-10-25T07:31:30.333Z,18.67
2017-10-25T07:33:57.749Z,23.83
2017-10-25T07:36:25.184Z,24.93
2017-10-25T07:38:53.449Z,23.17
2017-10-25T07:41:20.892Z,22.73
2017-10-25T07:43:48.334Z,35.87
2017-10-25T07:46:15.760Z,22.10
2017-10-25T07:48:43.179Z,22.63
2017-10-25T07:51:10.625Z,23.27
2017-10-25T07:53:38.050Z,17.80
2017-10-25T07:56:05.477Z,22.47
2017-10-25T07:58:32.910Z,16.17
2017-10-25T08:01:00.341Z,16.57
2017-10-25T08:03:27.749Z,15.10
2017-10-25T08:05:55.184Z,14.70
2017-10-25T08:08:22.613Z,25.63
2017-10-25T08:10:50.036Z,18.23
2017-10-25T08:13:17.469Z,11.77
2017-10-25T08:15:44.886Z,13.10
2017-10-25T08:18:12.304Z,15.73
2017-10-25T08:20:39.709Z,15.37
2017-10-25T08:23:07.172Z,13.53
2017-10-25T08:25:34.604Z,12.73
2017-10-25T08:28:02.036Z,16.10
2017-10-25T08:30:29.456Z,26.27
2017-10-25T08:32:56.881Z,17.43
2017-10-25T08:35:24.337Z,22.57
2017-10-25T08:37:51.758Z,18.90
2017-10-25T08:40:19.187Z,20.60
2017-10-25T08:42:46.647Z,19.80
2017-10-25T08:45:14.069Z,21.17
2017-10-25T08:47:41.512Z,19.93
2017-10-25T08:50:08.945Z,16.13
2017-10-25T08:52:36.369Z,24.47
2017-10-25T08:55:03.822Z,20.40
2017-10-25T08:57:31.236Z,28.63
2017-10-25T08:59:58.656Z,23.93
2017-10-25T09:02:26.100Z,26.63
2017-10-25T09:04:53.524Z,18.80
2017-10-25T09:07:20.949Z,30.83
2017-10-25T09:09:48.384Z,24.80
2017-10-25T09:12:15.853Z,22.97
2017-10-25T09:14:43.293Z,25.67
2017-10-25T09:17:10.726Z,28.50
2017-10-25T09:19:38.148Z,21.73
2017-10-25T09:22:05.598Z,25.63
2017-10-25T09:24:33.016Z,17.33
2017-10-25T09:27:00.456Z,27.93
2017-10-25T09:29:27.894Z,26.47
2017-10-25T09:31:55.320Z,29.80
2017-10-25T09:34:22.752Z,41.00
2017-10-25T09:36:50.179Z,21.77
2017-10-25T09:39:17.620Z,16.10
2017-10-25T09:41:45.040Z,15.80
2017-10-25T09:44:12.461Z,23.97
2017-10-25T09:46:39.898Z,15.20
2017-10-25T09:49:07.316Z,10.53
2017-10-25T09:51:34.733Z,10.80
2017-10-25T09:54:02.183Z,17.33
2017-10-25T09:56:29.595Z,10.90
2017-10-25T09:58:57.020Z,12.67
2017-10-25T10:01:24.453Z,11.93
2017-10-25T10:03:51.869Z,6.90
2017-10-25T10:06:19.276Z,5.97
2017-10-25T10:08:46.720Z,9.57
2017-10-25T10:11:14.141Z,5.50
2017-10-25T10:13:41.551Z,7.30
2017-10-25T10:16:08.989Z,18.30
2017-10-25T10:18:36.425Z,27.00
2017-10-25T10:21:03.853Z,14.70
2017-10-25T10:23:31.287Z,12.83
2017-10-25T10:25:58.700Z,14.73
2017-10-25T10:28:26.145Z,17.83
2017-10-25T10:30:53.581Z,19.80
2017-10-25T10:33:21.004Z,25.97
2017-10-25T10:35:48.446Z,23.03
2017-10-25T10:38:15.877Z,11.17
2017-10-25T10:40:43.292Z,15.23
2017-10-25T10:43:10.735Z,22.53
2017-10-25T10:45:38.152Z,19.77
2017-10-25T10:48:05.573Z,17.10
2017-10-25T10:50:33.008Z,11.60
2017-10-25T10:53:00.428Z,22.83
2017-10-25T10:55:27.849Z,16.97
2017-10-25T10:57:55.285Z,18.07
2017-10-25T11:00:22.700Z,20.00
2017-10-25T11:02:50.122Z,13.03
2017-10-25T11:05:17.556Z,13.80
2017-10-25T11:07:44.977Z,19.10
2017-10-25T11:10:12.392Z,13.97
2017-10-25T11:12:39.832Z,11.23
2017-10-25T11:15:07.249Z,9.30
2017-10-25T11:17:34.664Z,13.97
2017-10-25T11:20:02.105Z,8.77
2017-10-25T11:22:29.522Z,19.87
2017-10-25T11:24:56.937Z,9.13
2017-10-25T11:27:24.377Z,13.10
2017-10-25T11:29:51.797Z,14.90
2017-10-25T11:32:19.216Z,13.13
2017-10-25T11:34:46.652Z,6.17
2017-10-25T11:37:14.076Z,8.83
2017-10-25T11:39:41.496Z,8.00
2017-10-25T11:42:08.925Z,8.80
2017-10-25T11:44:36.336Z,6.53
2017-10-25T11:47:03.756Z,10.23
2017-10-25T11:49:31.192Z,10.40
2017-10-25T11:51:58.622Z,8.03
2017-10-25T11:54:26.036Z,7.67
2017-10-25T11:56:53.476Z,7.60
2017-10-25T11:59:20.892Z,9.30
2017-10-25T12:01:48.304Z,8.80
2017-10-25T12:04:15.741Z,6.10
2017-10-25T12:06:43.149Z,8.57
2017-10-25T12:09:10.563Z,11.07
2017-10-25T12:11:37.997Z,6.80
2017-10-25T12:14:05.413Z,5.53
2017-10-25T12:16:32.819Z,5.87
2017-10-25T12:19:00.253Z,5.83
2017-10-25T12:21:27.663Z,4.97
2017-10-25T12:23:55.082Z,10.03
2017-10-25T12:26:22.517Z,11.47
2017-10-25T12:28:49.939Z,11.23
2017-10-25T12:31:17.357Z,6.50
2017-10-25T12:33:44.786Z,5.23
2017-10-25T12:36:12.197Z,10.43
2017-10-25T12:38:39.612Z,5.90
2017-10-25T12:41:07.037Z,6.60
2017-10-25T12:43:34.453Z,5.40
2017-10-25T12:46:01.868Z,4.83
2017-10-25T12:48:29.296Z,7.70
2017-10-25T12:50:56.716Z,3.73
2017-10-25T12:53:24.129Z,4.83
2017-10-25T12:55:51.564Z,8.40
2017-10-25T12:58:18.976Z,6.87
2017-10-25T13:00:46.388Z,4.70
2017-10-25T13:03:13.829Z,5.93
2017-10-25T13:05:41.246Z,6.73
2017-10-25T13:08:08.682Z,9.30
2017-10-25T13:10:54.665Z,4.37
2017-10-25T13:13:36.914Z,10.97
2017-10-25T13:16:12.434Z,12.37
2017-10-25T13:18:46.836Z,12.07
2017-10-25T13:21:14.252Z,7.40
2017-10-25T13:23:41.669Z,5.30
2017-10-25T13:26:09.097Z,6.00
2017-10-25T13:28:36.513Z,6.80
2017-10-25T13:31:03.929Z,5.03
2017-10-25T13:33:31.384Z,4.90
2017-10-25T13:35:58.800Z,4.60
2017-10-25T13:38:26.212Z,4.90
2017-10-25T13:40:53.644Z,4.17
2017-10-25T13:43:21.056Z,9.23
2017-10-25T13:45:48.494Z,6.83
2017-10-25T13:48:15.916Z,8.93
2017-10-25T13:50:43.336Z,10.03
2017-10-25T13:53:10.745Z,4.17
2017-10-25T13:55:38.180Z,8.07
2017-10-25T13:58:05.588Z,7.73
2017-10-25T14:00:33.010Z,4.60
2017-10-25T14:03:00.451Z,15.60
2017-10-25T14:05:27.864Z,5.43
2017-10-25T14:07:55.285Z,7.97
2017-10-25T14:10:22.721Z,6.63
2017-10-25T14:12:50.130Z,5.40
2017-10-25T14:15:17.547Z,5.33
2017-10-25T14:17:44.972Z,5.23
2017-10-25T14:20:12.389Z,5.17
2017-10-25T14:22:39.812Z,4.40
2017-10-25T14:25:07.240Z,10.30
2017-10-25T14:27:46.417Z,7.93
2017-10-25T14:30:13.837Z,21.87
2017-10-25T14:32:41.249Z,6.07
2017-10-25T14:35:08.688Z,8.47
2017-10-25T14:37:36.100Z,4.53
2017-10-25T14:40:03.525Z,6.80
2017-10-25T14:42:30.948Z,6.60
2017-10-25T14:44:58.365Z,4.63
2017-10-25T14:47:25.797Z,4.67
2017-10-25T14:49:53.220Z,4.90
2017-10-25T14:52:20.632Z,6.10
2017-10-25T14:54:48.069Z,5.50
2017-10-25T14:57:15.493Z,10.03
2017-10-25T14:59:42.918Z,16.13
2017-10-25T15:02:10.349Z,6.20
2017-10-25T15:04:37.765Z,4.83
2017-10-25T15:07:05.176Z,5.13
2017-10-25T15:09:32.637Z,7.47
2017-10-25T15:12:00.049Z,5.97
2017-10-25T15:14:27.464Z,7.30
2017-10-25T15:16:54.896Z,5.57
2017-10-25T15:19:22.311Z,4.60
2017-10-25T15:21:49.729Z,7.00
2017-10-25T15:24:17.193Z,6.53
2017-10-25T15:26:44.609Z,4.73
2017-10-25T15:29:12.033Z,7.10
2017-10-25T15:31:39.467Z,4.70
2017-10-25T15:34:06.881Z,5.47
2017-10-25T15:36:34.292Z,4.70
2017-10-25T15:39:01.724Z,25.20
2017-10-25T15:41:29.140Z,19.10
2017-10-25T15:43:56.562Z,11.50
2017-10-25T15:46:23.993Z,12.57
2017-10-25T15:48:51.413Z,23.60
2017-10-25T15:51:18.830Z,16.10
2017-10-25T15:53:46.259Z,10.50
2017-10-25T15:56:13.676Z,10.90
2017-10-25T15:58:41.097Z,9.03
2017-10-25T16:01:08.528Z,8.70
2017-10-25T16:03:35.953Z,27.10
2017-10-25T16:06:03.416Z,17.10
2017-10-25T16:08:30.857Z,14.50
2017-10-25T16:10:58.272Z,8.17
2017-10-25T16:13:25.689Z,14.97
2017-10-25T16:15:53.142Z,27.73
2017-10-25T16:18:20.548Z,15.03
2017-10-25T16:20:47.976Z,10.50
2017-10-25T16:23:15.416Z,10.30
2017-10-25T16:25:42.834Z,9.43
2017-10-25T16:28:10.261Z,9.07
2017-10-25T16:30:37.708Z,7.20
2017-10-25T16:33:05.121Z,13.87
2017-10-25T16:35:32.548Z,15.10
2017-10-25T16:37:59.981Z,8.73
2017-10-25T16:40:27.392Z,7.43
2017-10-25T16:42:54.811Z,9.43
2017-10-25T16:45:22.245Z,7.20
2017-10-25T16:47:49.739Z,10.97
2017-10-25T16:50:17.165Z,11.30
2017-10-25T16:52:44.641Z,11.90
2017-10-25T16:55:12.052Z,11.53
2017-10-25T16:57:39.469Z,9.00
2017-10-25T17:00:06.906Z,11.70
2017-10-25T17:02:34.548Z,13.17
2017-10-25T17:05:01.981Z,12.40
2017-10-25T17:07:29.417Z,13.23
2017-10-25T17:09:56.882Z,12.10
2017-10-25T17:12:24.356Z,23.07
2017-10-25T17:14:51.784Z,11.57
2017-10-25T17:17:19.229Z,14.77
2017-10-25T17:19:46.648Z,13.60
2017-10-25T17:22:14.077Z,12.00
2017-10-25T17:24:41.501Z,13.73
2017-10-25T17:27:08.928Z,18.00
2017-10-25T17:29:36.348Z,9.93
2017-10-25T17:32:03.786Z,12.93
2017-10-25T17:34:31.566Z,11.60
2017-10-25T17:37:00.200Z,13.40
2017-10-25T17:39:27.638Z,15.33
2017-10-25T17:41:55.081Z,14.27
2017-10-25T17:44:22.526Z,24.63
2017-10-25T17:46:49.944Z,13.47
2017-10-25T17:49:17.396Z,19.27
2017-10-25T17:51:44.850Z,18.83
2017-10-25T17:54:12.269Z,15.80
2017-10-25T17:56:39.706Z,15.30
2017-10-25T17:59:07.143Z,17.87
2017-10-25T18:01:34.569Z,17.53
2017-10-25T18:04:02.011Z,21.30
2017-10-25T18:06:29.633Z,19.50
2017-10-25T18:08:57.113Z,17.97
2017-10-25T18:11:24.544Z,21.30
2017-10-25T18:13:51.968Z,21.87
2017-10-25T18:16:19.413Z,26.30
2017-10-25T18:18:46.853Z,23.13
2017-10-25T18:21:14.276Z,27.00
2017-10-25T18:23:41.729Z,26.23
2017-10-25T18:26:09.147Z,25.03
2017-10-25T18:28:36.573Z,21.00
2017-10-25T18:31:04.022Z,23.37
2017-10-25T18:33:31.461Z,24.13
2017-10-25T18:35:58.888Z,22.87
2017-10-25T18:38:26.361Z,23.30
2017-10-25T18:40:53.823Z,26.73
2017-10-25T18:43:21.252Z,32.83
2017-10-25T18:45:48.736Z,31.17
2017-10-25T18:48:16.168Z,25.03
2017-10-25T18:50:43.657Z,29.33
2017-10-25T18:53:11.114Z,33.00
2017-10-25T18:55:38.646Z,24.70
2017-10-25T18:58:06.139Z,28.53
2017-10-25T19:00:33.695Z,27.80
2017-10-25T19:03:01.250Z,27.50
2017-10-25T19:05:28.709Z,29.40
2017-10-25T19:07:56.188Z,28.50
2017-10-25T19:10:23.827Z,24.30
2017-10-25T19:12:51.360Z,40.30
2017-10-25T19:15:19.015Z,30.83
2017-10-25T19:17:46.473Z,22.77
2017-10-25T19:20:13.993Z,30.23
2017-10-25T19:22:41.570Z,31.47
2017-10-25T19:25:09.424Z,28.07
2017-10-25T19:27:37.290Z,26.50
2017-10-25T19:30:05.148Z,22.57
2017-10-25T19:32:33.198Z,21.77
2017-10-25T19:35:01.373Z,25.00
2017-10-25T19:37:29.059Z,21.80
2017-10-25T19:39:56.723Z,26.23
2017-10-25T19:42:24.610Z,26.03
2017-10-25T19:44:52.861Z,27.73
2017-10-25T19:47:20.495Z,25.20
2017-10-25T19:49:47.978Z,26.23
2017-10-25T19:52:15.429Z,28.47
2017-10-25T19:54:42.860Z,24.10
2017-10-25T19:57:10.304Z,23.93
2017-10-25T19:59:37.744Z,24.70
2017-10-25T20:02:05.177Z,27.23
2017-10-25T20:04:32.642Z,22.27
2017-10-25T20:07:00.068Z,25.77
2017-10-25T20:09:27.501Z,27.67
2017-10-25T20:11:55.010Z,25.27
2017-10-25T20:14:22.434Z,22.13
2017-10-25T20:16:49.867Z,28.40
2017-10-25T20:19:17.305Z,29.40
2017-10-25T20:21:44.758Z,26.17
2017-10-25T20:24:12.205Z,26.40
2017-10-25T20:26:39.644Z,29.20
2017-10-25T20:29:07.077Z,25.27
2017-10-25T20:31:34.525Z,33.60
2017-10-25T20:34:01.961Z,25.70
2017-10-25T20:36:29.414Z,30.67
2017-10-25T20:38:56.981Z,24.43
2017-10-25T20:41:24.412Z,27.07
2017-10-25T20:43:51.849Z,23.63
2017-10-25T20:46:19.284Z,37.90
2017-10-25T20:48:46.706Z,30.33
2017-10-25T20:51:14.140Z,30.70
2017-10-25T20:53:41.571Z,28.77
2017-10-25T20:56:08.988Z,27.33
2017-10-25T20:58:36.428Z,23.63
2017-10-25T21:01:03.874Z,26.73
2017-10-25T21:03:36.053Z,24.50
2017-10-25T21:06:03.514Z,26.60
2017-10-25T21:08:32.806Z,24.23
2017-10-25T21:11:00.245Z,38.40
2017-10-25T21:13:27.664Z,27.03
2017-10-25T21:15:55.110Z,25.37
2017-10-25T21:18:22.541Z,29.63
2017-10-25T21:20:49.972Z,31.43
2017-10-25T21:23:17.416Z,24.97
2017-10-25T21:25:44.837Z,33.77
2017-10-25T21:28:12.273Z,28.10
2017-10-25T21:30:39.712Z,25.33
2017-10-25T21:33:07.150Z,26.70
2017-10-25T21:35:34.583Z,27.90
2017-10-25T21:38:02.032Z,29.83
2017-10-25T21:40:29.457Z,32.47
2017-10-25T21:42:56.906Z,24.70
2017-10-25T21:45:24.337Z,32.93
2017-10-25T21:47:51.765Z,27.23
2017-10-25T21:50:19.210Z,28.87
2017-10-25T21:52:46.629Z,27.57
2017-10-25T21:55:14.053Z,22.43
2017-10-25T21:57:41.493Z,34.30
2017-10-25T22:00:08.929Z,26.80
2017-10-25T22:02:36.353Z,29.03
2017-10-25T22:05:03.802Z,28.50
2017-10-25T22:07:31.224Z,30.67
2017-10-25T22:09:58.664Z,24.10
2017-10-25T22:12:26.062Z,31.40
2017-10-25T22:14:53.518Z,28.67
2017-10-25T22:17:20.956Z,24.90
2017-10-25T22:19:48.393Z,28.07
2017-10-25T22:22:15.816Z,26.40
2017-10-25T22:24:43.258Z,22.80
2017-10-25T22:27:10.680Z,21.17
2017-10-25T22:29:38.096Z,24.10
2017-10-25T22:32:05.537Z,19.30
2017-10-25T22:34:32.962Z,30.27
2017-10-25T22:37:00.392Z,33.17
2017-10-25T22:39:27.827Z,21.30
2017-10-25T22:41:55.273Z,31.37
2017-10-25T22:44:22.705Z,21.70
2017-10-25T22:46:50.137Z,28.00
2017-10-25T22:49:17.561Z,24.43
2017-10-25T22:51:45.005Z,25.27
2017-10-25T22:54:12.424Z,24.40
2017-10-25T22:56:39.844Z,25.63
2017-10-25T22:59:07.280Z,23.13
2017-10-25T23:01:34.709Z,29.83
2017-10-25T23:04:02.128Z,30.23
2017-10-25T23:06:29.564Z,25.00
2017-10-25T23:08:56.994Z,24.93
2017-10-25T23:11:24.418Z,24.80
2017-10-25T23:13:51.865Z,23.63
2017-10-25T23:16:19.286Z,27.80
2017-10-25T23:18:46.712Z,24.50
2017-10-25T23:21:14.144Z,26.00
2017-10-25T23:23:41.564Z,26.50
2017-10-25T23:26:08.985Z,24.00
2017-10-25T23:28:36.437Z,31.07
2017-10-25T23:31:03.860Z,29.03
2017-10-25T23:33:31.280Z,38.43
2017-10-25T23:35:58.727Z,28.33
2017-10-25T23:38:26.145Z,29.57
2017-10-25T23:40:53.565Z,30.87
2017-10-25T23:43:21.000Z,32.67
2017-10-25T23:45:48.427Z,28.60
2017-10-25T23:48:15.850Z,33.93
2017-10-25T23:50:43.294Z,26.73
2017-10-25T23:53:10.891Z,31.43
2017-10-25T23:55:38.306Z,21.80
2017-10-25T23:58:05.744Z,34.57
